Time;durP1;ratioP1;P1;durP2;ratioP2;P2;SDS_P1;SDS_P2;PMS_P1;PMS_P2;Temp;Humidity;BMP_temperature;BMP_pressure;BME280_temperature;BME280_humidity;BME280_pressure;Samples;Min_cycle;Max_cycle;Signal;HPM_P1;HPM_P2
2022/03/06 00:02:05;;;;;;;13.87;8.47;;;;;;;2.11;99.45;94495.31;5072364;28;20867;-80
2022/03/06 00:04:31;;;;;;;12.87;7.50;;;;;;;2.33;99.56;94523.16;5072470;28;20162;-80
2022/03/06 00:07:20;;;;;;;12.90;9.27;;;;;;;2.26;99.16;94514.41;5072168;28;20162;-79
2022/03/06 00:09:45;;;;;;;11.27;7.43;;;;;;;2.27;99.21;94521.22;5072207;28;20149;-80
2022/03/06 00:12:11;;;;;;;14.17;8.50;;;;;;;2.33;99.72;94510.19;5072402;28;20151;-79
2022/03/06 00:14:38;;;;;;;12.17;7.63;;;;;;;2.09;98.90;94474.72;5072274;28;20185;-80
2022/03/06 00:17:03;;;;;;;12.63;8.00;;;;;;;1.79;99.45;94444.34;5072047;28;20196;-80
2022/03/06 00:19:29;;;;;;;11.40;8.10;;;;;;;2.21;99.34;94516.69;5080569;28;20692;-80
2022/03/06 00:21:54;;;;;;;14.63;7.53;;;;;;;2.13;99.40;94489.00;5083026;28;20551;-79
2022/03/06 00:24:19;;;;;;;11.23;7.83;;;;;;;2.26;99.06;94506.63;5083711;28;20173;-79
2022/03/06 00:26:45;;;;;;;10.80;8.10;;;;;;;2.33;99.27;94528.34;5083650;28;20250;-79
2022/03/06 00:29:10;;;;;;;13.80;8.00;;;;;;;2.26;99.32;94496.22;5083485;28;20177;-79
2022/03/06 00:31:39;;;;;;;11.83;7.03;;;;;;;2.36;99.46;94504.63;5076196;28;20264;-79
2022/03/06 00:34:16;;;;;;;7.60;5.27;;;;;;;1.95;98.55;94449.47;5072028;28;20151;-80
2022/03/06 00:36:42;;;;;;;9.57;5.97;;;;;;;2.18;98.89;94496.25;5072017;28;20181;-80
2022/03/06 00:39:07;;;;;;;10.83;7.10;;;;;;;2.10;98.97;94483.31;5072026;28;20166;-80
2022/03/06 00:41:33;;;;;;;8.70;5.87;;;;;;;2.21;98.98;94490.75;5071724;28;20151;-80
2022/03/06 00:43:58;;;;;;;6.40;4.53;;;;;;;1.83;98.48;94430.06;5072335;28;20232;-80
2022/03/06 00:46:24;;;;;;;7.67;5.27;;;;;;;2.20;98.58;94486.53;5082841;28;20170;-80
2022/03/06 00:48:49;;;;;;;9.00;5.93;;;;;;;2.14;98.15;94495.81;5085456;28;20216;-80
2022/03/06 00:51:15;;;;;;;9.10;5.60;;;;;;;2.18;99.07;94485.88;5080326;28;20197;-80
2022/03/06 00:53:42;;;;;;;7.53;4.63;;;;;;;2.20;98.62;94491.72;5094930;28;20578;-80
2022/03/06 00:56:07;;;;;;;6.47;5.20;;;;;;;1.85;98.63;94413.34;5096696;28;20158;-79
2022/03/06 00:58:48;;;;;;;6.90;4.80;;;;;;;2.28;98.67;94486.50;5094208;28;20679;-80
2022/03/06 01:01:14;;;;;;;7.67;4.97;;;;;;;1.74;99.13;94423.28;5087959;28;21117;-79
2022/03/06 01:03:40;;;;;;;8.87;4.80;;;;;;;2.10;99.50;94483.31;5082548;28;20182;-79
2022/03/06 01:06:05;;;;;;;6.97;5.20;;;;;;;2.11;99.16;94500.50;5080779;28;20184;-79
2022/03/06 01:08:31;;;;;;;8.07;5.73;;;;;;;2.09;99.69;94490.28;5091185;28;20165;-79
2022/03/06 01:11:02;;;;;;;6.93;5.00;;;;;;;1.89;99.29;94432.81;5095980;28;20493;-79
2022/03/06 01:13:28;;;;;;;8.80;5.97;;;;;;;2.21;99.19;94465.59;5095960;28;20177;-81
2022/03/06 01:15:53;;;;;;;7.33;4.37;;;;;;;2.01;98.95;94451.41;5091499;28;20166;-80
2022/03/06 01:18:20;;;;;;;8.60;5.83;;;;;;;2.11;98.33;94470.19;5083939;28;20169;-80
2022/03/06 01:20:46;;;;;;;9.87;6.50;;;;;;;2.16;98.58;94475.66;5083861;28;20654;-80
2022/03/06 01:23:11;;;;;;;8.67;5.23;;;;;;;2.06;99.15;94469.06;5084562;28;20167;-79
2022/03/06 01:25:37;;;;;;;10.37;6.57;;;;;;;2.14;99.13;94475.03;5078613;28;20661;-79
2022/03/06 01:28:03;;;;;;;9.40;6.50;;;;;;;2.19;98.73;94487.50;5075554;28;20159;-79
2022/03/06 01:30:28;;;;;;;10.40;7.17;;;;;;;2.18;98.85;94468.53;5074713;28;20210;-79
2022/03/06 01:32:54;;;;;;;11.50;6.40;;;;;;;2.19;99.10;94464.13;5075198;28;20510;-79
2022/03/06 01:35:33;;;;;;;10.47;6.83;;;;;;;2.12;98.42;94450.22;5082804;28;20182;-78
2022/03/06 01:37:58;;;;;;;12.50;7.70;;;;;;;2.17;98.88;94448.72;5075876;28;20223;-79
2022/03/06 01:40:24;;;;;;;10.23;7.53;;;;;;;2.28;98.77;94461.34;5083685;28;20170;-79
2022/03/06 01:42:50;;;;;;;8.97;6.27;;;;;;;2.25;98.55;94466.84;5082324;28;20193;-79
2022/03/06 01:45:19;;;;;;;13.73;7.60;;;;;;;2.18;98.77;94452.13;5085950;28;20202;-79
2022/03/06 01:47:46;;;;;;;12.97;7.60;;;;;;;2.07;99.10;94432.56;5085995;28;20174;-79
2022/03/06 01:50:20;;;;;;;11.13;7.27;;;;;;;2.09;99.08;94440.97;5086034;28;20200;-79
2022/03/06 01:52:48;;;;;;;11.13;7.33;;;;;;;2.15;99.07;94447.28;5076110;28;20177;-79
2022/03/06 01:55:15;;;;;;;12.90;9.10;;;;;;;2.17;99.22;94443.53;5074520;28;20174;-79
2022/03/06 01:57:42;;;;;;;12.17;7.50;;;;;;;1.78;98.32;94376.09;5074608;28;20163;-79
2022/03/06 02:00:12;;;;;;;12.10;8.30;;;;;;;2.21;98.88;94439.63;5081176;28;20192;-79
2022/03/06 02:02:37;;;;;;;12.33;7.03;;;;;;;2.12;98.55;94406.09;5083131;28;20173;-79
2022/03/06 02:05:03;;;;;;;13.87;8.97;;;;;;;2.36;97.81;94452.69;5087594;28;20174;-80
2022/03/06 02:07:29;;;;;;;16.97;8.97;;;;;;;2.34;98.14;94433.88;5087491;28;20561;-79
2022/03/06 02:09:55;;;;;;;12.93;8.97;;;;;;;2.39;97.44;94435.97;5074448;28;20163;-80
2022/03/06 02:15:44;;;;;;;12.70;8.40;;;;;;;2.43;96.87;94432.03;5073949;28;20243;-79
2022/03/06 02:18:15;;;;;;;14.57;7.90;;;;;;;2.39;97.23;94412.59;5074155;28;20189;-79
2022/03/06 02:20:41;;;;;;;13.60;8.63;;;;;;;2.18;96.44;94401.03;5082863;28;20198;-79
2022/03/06 02:23:25;;;;;;;12.17;7.63;;;;;;;2.49;96.48;94437.38;5083202;28;20209;-79
2022/03/06 02:25:50;;;;;;;12.63;8.43;;;;;;;2.27;96.60;94425.16;5073985;28;20159;-79
2022/03/06 02:28:24;;;;;;;11.37;7.87;;;;;;;2.00;96.74;94381.50;5074160;28;20676;-79
2022/03/06 02:30:50;;;;;;;13.63;8.27;;;;;;;2.36;96.21;94459.66;5073758;28;20218;-80
2022/03/06 02:33:15;;;;;;;12.20;8.33;;;;;;;2.05;97.20;94382.63;5073671;28;20177;-79
2022/03/06 02:35:41;;;;;;;9.97;5.37;;;;;;;2.36;96.78;94437.13;5074149;28;20253;-79
2022/03/06 02:38:07;;;;;;;14.33;8.03;;;;;;;2.29;96.62;94433.59;5073868;28;20171;-80
2022/03/06 02:40:38;;;;;;;12.87;8.50;;;;;;;2.41;97.39;94436.63;5073643;28;20204;-80
2022/03/06 02:46:13;;;;;;;12.33;7.50;;;;;;;1.96;96.38;94372.44;5070674;28;20234;-79
2022/03/06 02:48:38;;;;;;;10.43;6.83;;;;;;;1.92;96.48;94369.38;5082608;28;20174;-80
2022/03/06 02:51:05;;;;;;;11.60;6.87;;;;;;;2.05;96.27;94385.22;5082075;28;20661;-80
2022/03/06 02:53:31;;;;;;;12.80;6.97;;;;;;;2.42;96.51;94446.03;5073481;28;20610;-80
2022/03/06 02:56:03;;;;;;;11.23;7.07;;;;;;;2.34;95.72;94425.25;5073488;28;20256;-80
2022/03/06 02:58:28;;;;;;;9.07;6.50;;;;;;;2.46;95.89;94439.50;5073915;28;20176;-80
2022/03/06 03:00:53;;;;;;;10.20;6.10;;;;;;;2.12;95.34;94399.13;5073660;28;20159;-79
2022/03/06 03:03:20;;;;;;;8.23;5.73;;;;;;;2.34;95.21;94417.47;5079397;28;20170;-79
2022/03/06 03:05:45;;;;;;;8.37;5.23;;;;;;;1.86;96.07;94360.47;5084466;28;20636;-80
2022/03/06 03:08:11;;;;;;;12.30;6.53;;;;;;;2.25;96.44;94434.88;5082489;28;20178;-80
2022/03/06 03:10:36;;;;;;;7.87;6.23;;;;;;;1.73;97.22;94380.97;5081742;28;20198;-80
2022/03/06 03:13:02;;;;;;;10.10;6.77;;;;;;;2.14;97.34;94453.47;5073146;28;20158;-79
2022/03/06 03:15:27;;;;;;;8.20;5.23;;;;;;;2.12;98.01;94443.25;5072486;28;20227;-80
2022/03/06 03:17:53;;;;;;;6.27;4.80;;;;;;;1.87;96.92;94393.25;5073574;28;20174;-80
2022/03/06 03:20:18;;;;;;;8.07;5.60;;;;;;;2.22;96.85;94458.63;5071491;28;20245;-80
2022/03/06 03:22:44;;;;;;;5.67;4.67;;;;;;;2.22;96.99;94471.59;5082005;28;20178;-80
2022/03/06 03:25:18;;;;;;;6.57;5.07;;;;;;;1.79;98.04;94408.84;5091001;28;20176;-80
2022/03/06 03:27:43;;;;;;;9.70;6.07;;;;;;;2.05;97.54;94431.13;5081581;28;20193;-80
2022/03/06 03:30:10;;;;;;;8.47;6.13;;;;;;;1.77;98.11;94387.44;5087190;28;20220;-80
2022/03/06 03:32:36;;;;;;;8.10;5.57;;;;;;;2.10;98.23;94460.75;5093141;28;20184;-80
2022/03/06 03:35:02;;;;;;;7.53;5.43;;;;;;;2.14;98.66;94461.25;5093072;28;20215;-80
2022/03/06 03:37:28;;;;;;;9.07;6.03;;;;;;;1.64;98.25;94389.78;5092874;28;20194;-80
2022/03/06 03:39:53;;;;;;;10.03;5.80;;;;;;;1.92;98.77;94455.00;5093300;28;20241;-79
2022/03/06 03:42:19;;;;;;;8.10;5.57;;;;;;;1.83;99.90;94446.44;5092968;28;20157;-79
2022/03/06 03:44:44;;;;;;;6.40;4.57;;;;;;;1.94;99.38;94452.25;5083752;28;20630;-79
2022/03/06 03:47:10;;;;;;;6.30;4.40;;;;;;;1.71;100.00;94462.53;5083811;28;20248;-79
2022/03/06 03:49:35;;;;;;;8.37;5.83;;;;;;;1.67;100.00;94451.69;5077245;28;20549;-79
2022/03/06 03:52:01;;;;;;;6.90;5.00;;;;;;;1.89;100.00;94444.97;5072469;28;20974;-79
2022/03/06 03:54:29;;;;;;;9.50;6.53;;;;;;;1.68;100.00;94442.13;5083605;28;20552;-78
2022/03/06 03:56:55;;;;;;;7.50;5.50;;;;;;;1.85;100.00;94456.66;5078995;28;20185;-79
2022/03/06 03:59:20;;;;;;;6.87;4.70;;;;;;;1.47;100.00;94390.81;5073000;28;20526;-79
2022/03/06 04:01:45;;;;;;;10.37;6.23;;;;;;;1.84;100.00;94471.41;5072812;28;20159;-79
2022/03/06 04:04:11;;;;;;;8.73;5.90;;;;;;;1.84;100.00;94473.19;5072514;28;20182;-79
2022/03/06 04:06:36;;;;;;;7.73;5.10;;;;;;;1.83;100.00;94453.41;5072537;28;20261;-79
2022/03/06 04:09:02;;;;;;;7.17;5.43;;;;;;;1.93;100.00;94461.81;5072934;28;20166;-79
2022/03/06 04:11:28;;;;;;;8.23;5.20;;;;;;;1.44;100.00;94384.16;5072388;28;20190;-79
2022/03/06 04:13:53;;;;;;;4.23;3.23;;;;;;;1.94;100.00;94458.25;5072279;28;20150;-79
2022/03/06 04:16:19;;;;;;;8.73;4.87;;;;;;;1.36;100.00;94411.91;5072610;28;20257;-79
2022/03/06 04:18:44;;;;;;;6.77;5.53;;;;;;;1.36;100.00;94401.53;5072466;28;20238;-78
2022/03/06 04:21:09;;;;;;;9.20;6.60;;;;;;;1.69;100.00;94449.72;5090232;28;20647;-79
2022/03/06 04:23:42;;;;;;;7.30;4.80;;;;;;;1.75;100.00;94453.44;5081200;28;20175;-79
2022/03/06 04:26:07;;;;;;;7.63;5.47;;;;;;;1.74;100.00;94459.59;5081167;28;20167;-78
2022/03/06 04:31:54;;;;;;;6.00;4.50;;;;;;;1.32;100.00;94402.81;5096027;28;20371;-80
2022/03/06 04:34:23;;;;;;;6.37;4.37;;;;;;;1.51;100.00;94439.56;5096695;28;20248;-81
2022/03/06 04:36:48;;;;;;;6.97;4.53;;;;;;;1.77;100.00;94469.66;5096499;28;20271;-81
2022/03/06 04:39:38;;;;;;;8.53;5.10;;;;;;;1.74;100.00;94475.16;5095125;28;20629;-81
2022/03/06 04:42:04;;;;;;;7.43;4.30;;;;;;;1.84;100.00;94478.38;5066679;28;20186;-82
2022/03/06 04:44:29;;;;;;;7.87;4.47;;;;;;;1.93;100.00;94473.97;5096765;28;20176;-82
2022/03/06 04:47:34;;;;;;;6.40;4.47;;;;;;;1.85;100.00;94473.03;5096326;28;20556;-81
2022/03/06 04:50:00;;;;;;;5.97;3.90;;;;;;;1.78;100.00;94458.31;5096279;28;20178;-80
2022/03/06 04:52:26;;;;;;;6.60;4.10;;;;;;;1.73;100.00;94469.16;5085714;28;20709;-80
2022/03/06 04:54:51;;;;;;;6.53;4.57;;;;;;;1.66;100.00;94442.28;5084641;28;20182;-81
2022/03/06 04:57:17;;;;;;;6.50;4.30;;;;;;;1.87;100.00;94478.88;5087155;28;20707;-80
2022/03/06 04:59:42;;;;;;;6.63;4.90;;;;;;;1.39;100.00;94396.00;5091411;28;20178;-80
2022/03/06 05:02:08;;;;;;;6.70;4.00;;;;;;;1.82;100.00;94462.97;5096308;28;20165;-80
2022/03/06 05:04:33;;;;;;;6.53;4.60;;;;;;;1.86;100.00;94464.28;5096838;28;20296;-81
2022/03/06 05:06:59;;;;;;;6.33;4.20;;;;;;;1.69;100.00;94451.50;5095384;28;20146;-80
2022/03/06 05:09:44;;;;;;;5.60;3.50;;;;;;;1.77;100.00;94465.28;5083724;28;20234;-80
2022/03/06 05:12:10;;;;;;;3.93;3.17;;;;;;;1.55;100.00;94431.47;5078435;28;20220;-80
2022/03/06 05:14:46;;;;;;;6.70;4.37;;;;;;;1.40;100.00;94429.53;5085896;28;20202;-79
2022/03/06 05:17:11;;;;;;;6.63;4.57;;;;;;;1.66;100.00;94470.81;5082625;28;20170;-80
2022/03/06 05:19:37;;;;;;;8.13;3.37;;;;;;;1.35;100.00;94431.84;5085123;28;20695;-80
2022/03/06 05:22:05;;;;;;;5.33;4.07;;;;;;;1.41;100.00;94425.97;5087584;28;20299;-80
2022/03/06 05:24:31;;;;;;;5.67;4.23;;;;;;;1.76;100.00;94471.44;5083962;28;20163;-80
2022/03/06 05:26:56;;;;;;;6.17;4.37;;;;;;;1.37;100.00;94403.97;5084899;28;20175;-81
2022/03/06 05:29:21;;;;;;;4.97;3.80;;;;;;;1.08;100.00;94383.75;5088433;28;20173;-82
2022/03/06 05:31:47;;;;;;;7.17;4.70;;;;;;;1.30;100.00;94428.91;5083688;28;20343;-82
2022/03/06 05:34:12;;;;;;;5.50;3.77;;;;;;;1.21;100.00;94422.13;5081703;28;20561;-83
2022/03/06 05:36:37;;;;;;;4.97;3.53;;;;;;;1.58;100.00;94460.44;5079397;28;20182;-80
2022/03/06 05:39:03;;;;;;;6.40;3.43;;;;;;;1.61;100.00;94473.09;5080287;28;20258;-80
2022/03/06 05:41:28;;;;;;;4.90;3.27;;;;;;;1.57;100.00;94489.94;5101781;28;20169;-79
2022/03/06 05:43:54;;;;;;;3.73;2.90;;;;;;;1.35;100.00;94437.00;5087404;28;20249;-80
2022/03/06 05:46:19;;;;;;;4.37;2.90;;;;;;;1.51;100.00;94433.56;5095065;28;20174;-81
2022/03/06 05:48:46;;;;;;;3.53;2.93;;;;;;;1.19;100.00;94358.47;5095155;28;20249;-80
2022/03/06 05:51:11;;;;;;;4.13;2.73;;;;;;;1.56;100.00;94425.31;5095371;28;20209;-80
2022/03/06 05:54:17;;;;;;;5.20;3.63;;;;;;;1.96;100.00;94476.25;5095187;28;20213;-80
2022/03/06 05:56:43;;;;;;;3.30;2.70;;;;;;;2.00;99.16;94469.72;5094966;28;20170;-80
2022/03/06 05:59:08;;;;;;;2.93;2.60;;;;;;;1.88;98.46;94448.53;5085301;28;20185;-79
2022/03/06 06:01:34;;;;;;;4.10;2.50;;;;;;;2.11;98.14;94488.34;5085781;28;20189;-80
2022/03/06 06:04:00;;;;;;;4.50;3.13;;;;;;;2.05;97.66;94481.25;5093445;28;20534;-81
2022/03/06 06:06:26;;;;;;;2.80;2.53;;;;;;;1.96;97.59;94487.44;5085447;28;21032;-81
2022/03/06 06:08:52;;;;;;;4.90;2.53;;;;;;;1.54;98.13;94419.47;5093997;28;20165;-81
2022/03/06 06:11:18;;;;;;;3.60;2.70;;;;;;;1.95;98.14;94490.19;5086117;28;20209;-80
2022/03/06 06:13:44;;;;;;;3.77;3.00;;;;;;;1.88;97.79;94505.63;5085420;28;20541;-79
2022/03/06 06:16:09;;;;;;;3.27;2.37;;;;;;;1.80;98.68;94492.69;5088712;28;20653;-80
2022/03/06 06:18:34;;;;;;;4.57;2.50;;;;;;;1.48;98.50;94439.88;5084840;28;20672;-80
2022/03/06 06:21:00;;;;;;;3.20;2.80;;;;;;;1.48;97.94;94431.28;5060870;28;20215;-83
2022/03/06 06:23:25;;;;;;;4.33;3.00;;;;;;;1.28;97.83;94404.16;5078896;28;20630;-83
2022/03/06 06:26:34;;;;;;;4.03;2.87;;;;;;;1.96;97.58;94499.59;5076602;28;20178;-81
2022/03/06 06:29:00;;;;;;;5.17;2.90;;;;;;;1.12;97.64;94368.72;5072506;28;20165;-80
2022/03/06 06:31:26;;;;;;;3.63;2.73;;;;;;;1.76;97.40;94478.41;5073754;28;20219;-80
2022/03/06 06:34:06;;;;;;;4.10;2.73;;;;;;;1.77;98.22;94488.63;5073736;28;20169;-80
2022/03/06 06:36:32;;;;;;;3.40;3.07;;;;;;;1.89;97.99;94508.06;5074052;28;20201;-80
2022/03/06 06:38:57;;;;;;;3.83;3.00;;;;;;;2.01;98.16;94520.66;5073829;28;20163;-80
2022/03/06 06:41:23;;;;;;;3.37;2.60;;;;;;;1.68;97.00;94462.88;5074341;28;20155;-80
2022/03/06 06:43:48;;;;;;;3.87;3.07;;;;;;;1.69;98.01;94454.91;5073930;28;20155;-81
2022/03/06 06:46:14;;;;;;;3.77;2.80;;;;;;;2.05;97.63;94508.97;5073609;28;20174;-81
2022/03/06 06:48:39;;;;;;;3.00;2.43;;;;;;;1.27;97.20;94402.53;5073571;28;20169;-80
2022/03/06 06:51:06;;;;;;;3.17;2.67;;;;;;;1.87;97.76;94511.78;5072369;28;20273;-80
2022/03/06 06:53:31;;;;;;;2.83;2.50;;;;;;;1.75;98.05;94526.88;5073997;28;20261;-81
2022/03/06 06:55:57;;;;;;;4.53;2.70;;;;;;;1.54;98.47;94474.75;5073376;28;20190;-85
2022/03/06 06:58:23;;;;;;;4.37;2.80;;;;;;;1.36;98.61;94438.63;5073004;28;20662;-86
2022/03/06 07:00:48;;;;;;;3.63;2.27;;;;;;;1.35;97.74;94457.75;5073529;28;20224;-83
2022/03/06 07:04:03;;;;;;;2.83;2.60;;;;;;;1.80;99.02;94519.44;5073575;28;20159;-84
2022/03/06 07:06:28;;;;;;;2.93;2.30;;;;;;;1.40;98.12;94458.06;5071890;28;20232;-83
2022/03/06 07:08:54;;;;;;;2.43;2.17;;;;;;;1.02;98.15;94420.72;5073569;28;20565;-83
2022/03/06 07:14:41;;;;;;;2.83;2.37;;;;;;;1.26;99.69;94455.34;5078408;28;20315;-88
2022/03/06 07:17:06;;;;;;;3.37;2.23;;;;;;;1.16;99.39;94444.31;5080198;28;20273;-86
2022/03/06 07:19:32;;;;;;;3.93;2.33;;;;;;;1.14;99.23;94428.94;5074854;28;20182;-85
2022/03/06 07:21:59;;;;;;;2.40;2.20;;;;;;;1.12;99.41;94423.13;5077344;28;20178;-85
2022/03/06 07:24:32;;;;;;;2.57;2.10;;;;;;;1.39;99.29;94451.25;5081130;28;20162;-84
2022/03/06 07:26:58;;;;;;;2.53;2.20;;;;;;;1.44;98.22;94461.94;5082512;28;20173;-84
2022/03/06 07:29:23;;;;;;;2.90;2.33;;;;;;;1.85;97.63;94511.94;5081242;28;20726;-82
2022/03/06 07:31:49;;;;;;;2.67;2.10;;;;;;;1.84;96.88;94499.94;5081637;28;20300;-82
2022/03/06 07:34:14;;;;;;;2.93;2.57;;;;;;;1.13;96.94;94425.53;5086336;28;20170;-82
2022/03/06 07:36:39;;;;;;;2.53;2.00;;;;;;;1.32;97.57;94450.28;5084854;28;20206;-82
2022/03/06 07:39:05;;;;;;;2.80;2.27;;;;;;;1.73;96.63;94492.50;5069773;28;20269;-82
2022/03/06 07:41:30;;;;;;;2.03;1.70;;;;;;;1.30;97.35;94423.72;5069701;28;20642;-82
2022/03/06 07:43:56;;;;;;;3.37;2.40;;;;;;;1.75;96.59;94513.91;5070131;28;20638;-82
2022/03/06 07:46:21;;;;;;;4.50;2.60;;;;;;;1.72;97.31;94480.53;5076866;28;20185;-82
2022/03/06 07:48:46;;;;;;;3.27;2.30;;;;;;;2.04;96.81;94530.72;5087221;28;20203;-82
2022/03/06 07:51:12;;;;;;;2.50;1.60;;;;;;;1.48;95.58;94473.59;5080530;28;20190;-81
2022/03/06 07:53:37;;;;;;;2.43;2.07;;;;;;;0.97;96.47;94424.75;5075875;28;20601;-82
2022/03/06 07:56:03;;;;;;;5.83;2.10;;;;;;;1.62;96.89;94515.41;5069968;28;20177;-82
2022/03/06 07:58:28;;;;;;;3.30;2.17;;;;;;;1.33;97.33;94462.28;5070208;28;20182;-81
2022/03/06 08:00:54;;;;;;;3.77;2.37;;;;;;;1.14;96.96;94424.56;5070183;28;20163;-81
2022/03/06 08:03:19;;;;;;;3.63;1.90;;;;;;;1.33;97.24;94443.31;5087065;28;20243;-82
2022/03/06 08:05:45;;;;;;;2.87;2.30;;;;;;;1.92;97.38;94521.66;5075545;28;20171;-82
2022/03/06 08:08:10;;;;;;;2.77;2.20;;;;;;;1.97;96.50;94527.19;5070141;28;20598;-82
2022/03/06 08:10:36;;;;;;;2.83;1.97;;;;;;;1.57;96.25;94463.22;5084798;28;20698;-82
2022/03/06 08:13:01;;;;;;;2.37;2.10;;;;;;;1.32;96.58;94465.84;5074022;28;20171;-81
2022/03/06 08:15:27;;;;;;;2.70;1.83;;;;;;;1.67;97.75;94531.28;5089303;28;20170;-81
2022/03/06 08:17:52;;;;;;;4.57;2.63;;;;;;;1.72;98.03;94536.78;5073535;28;20186;-82
2022/03/06 08:20:17;;;;;;;2.80;2.20;;;;;;;1.62;98.24;94513.63;5079179;28;20260;-81
2022/03/06 08:22:43;;;;;;;2.93;2.37;;;;;;;1.42;97.24;94469.06;5082030;28;20608;-81
2022/03/06 08:25:09;;;;;;;3.53;2.67;;;;;;;1.94;96.74;94549.06;5087833;28;20197;-81
2022/03/06 08:27:34;;;;;;;4.80;2.57;;;;;;;1.97;96.40;94530.59;5084095;28;20536;-81
2022/03/06 08:30:01;;;;;;;3.20;2.57;;;;;;;1.98;96.49;94546.97;5069847;28;20166;-80
2022/03/06 08:32:26;;;;;;;7.27;2.63;;;;;;;1.86;96.79;94503.19;5069630;28;20733;-80
2022/03/06 08:34:52;;;;;;;4.57;3.00;;;;;;;2.12;96.52;94523.72;5069723;28;20269;-81
2022/03/06 08:37:20;;;;;;;3.67;2.60;;;;;;;2.00;96.02;94521.63;5068621;28;20218;-80
2022/03/06 08:39:47;;;;;;;4.57;3.17;;;;;;;2.12;95.75;94522.91;5078022;28;20169;-81
2022/03/06 08:42:13;;;;;;;4.57;3.03;;;;;;;1.85;94.98;94467.84;5089861;28;20235;-81
2022/03/06 08:44:38;;;;;;;2.67;2.27;;;;;;;1.97;95.25;94483.06;5078946;28;20674;-81
2022/03/06 08:47:04;;;;;;;5.33;3.00;;;;;;;1.89;94.13;94465.72;5069731;28;20232;-81
2022/03/06 08:49:29;;;;;;;5.20;2.87;;;;;;;2.06;94.49;94493.25;5068902;28;20713;-81
2022/03/06 08:51:55;;;;;;;3.73;2.47;;;;;;;1.92;94.58;94457.59;5082224;28;20603;-81
2022/03/06 08:54:21;;;;;;;3.77;2.60;;;;;;;2.27;94.32;94516.03;5069644;28;20224;-81
2022/03/06 08:56:46;;;;;;;3.97;3.13;;;;;;;2.43;95.10;94515.94;5068002;28;20216;-81
2022/03/06 08:59:12;;;;;;;5.10;3.00;;;;;;;2.41;94.58;94504.94;5067810;28;20610;-80
2022/03/06 09:01:38;;;;;;;4.53;2.60;;;;;;;2.52;94.19;94509.75;5080824;28;20260;-81
2022/03/06 09:04:04;;;;;;;3.33;2.47;;;;;;;2.53;93.71;94526.94;5075158;28;20553;-81
2022/03/06 09:06:29;;;;;;;3.83;2.50;;;;;;;1.81;93.78;94443.22;5089465;28;20219;-81
2022/03/06 09:08:54;;;;;;;2.17;1.93;;;;;;;1.70;95.26;94473.88;5078567;28;20185;-81
2022/03/06 09:11:20;;;;;;;3.33;2.50;;;;;;;1.72;96.21;94439.03;5085407;28;20204;-80
2022/03/06 09:13:45;;;;;;;4.50;2.60;;;;;;;1.93;95.73;94487.75;5094410;28;20169;-81
2022/03/06 09:16:11;;;;;;;3.70;2.80;;;;;;;1.71;95.53;94434.81;5075618;28;20248;-81
2022/03/06 09:18:36;;;;;;;4.73;2.90;;;;;;;2.46;95.70;94531.22;5083225;28;20178;-81
2022/03/06 09:21:02;;;;;;;3.13;2.70;;;;;;;2.11;93.81;94471.97;5087167;28;20621;-81
2022/03/06 09:23:27;;;;;;;5.93;2.67;;;;;;;2.11;93.46;94467.56;5079242;28;20200;-81
2022/03/06 09:25:52;;;;;;;2.93;2.70;;;;;;;2.42;93.60;94519.53;5075891;28;20166;-81
2022/03/06 09:28:18;;;;;;;4.37;2.27;;;;;;;2.25;92.57;94486.81;5091136;28;20668;-81
2022/03/06 09:30:43;;;;;;;4.20;3.00;;;;;;;1.94;93.49;94452.25;5090499;28;20194;-81
2022/03/06 09:33:09;;;;;;;4.30;2.97;;;;;;;2.32;93.28;94513.75;5085522;28;20178;-81
2022/03/06 09:35:35;;;;;;;3.40;2.20;;;;;;;2.01;92.65;94460.97;5072418;28;20185;-81
2022/03/06 09:38:01;;;;;;;5.00;3.03;;;;;;;2.33;92.92;94524.94;5072692;28;20162;-81
2022/03/06 09:40:27;;;;;;;3.63;2.40;;;;;;;1.99;93.49;94478.50;5090111;28;20154;-82
2022/03/06 09:42:52;;;;;;;4.27;3.17;;;;;;;1.56;93.72;94410.53;5089823;28;20170;-81
2022/03/06 09:45:21;;;;;;;3.57;2.70;;;;;;;2.16;93.76;94513.81;5078748;28;20182;-81
2022/03/06 09:47:46;;;;;;;4.33;3.00;;;;;;;1.74;94.28;94444.84;5071999;28;20171;-80
2022/03/06 09:50:13;;;;;;;3.30;2.77;;;;;;;2.11;94.70;94524.69;5085196;28;20180;-81
2022/03/06 09:52:39;;;;;;;5.03;3.30;;;;;;;2.16;94.98;94519.00;5071000;28;20182;-81
2022/03/06 09:55:06;;;;;;;5.40;3.23;;;;;;;1.80;94.76;94457.16;5085264;28;20184;-81
2022/03/06 09:57:31;;;;;;;4.97;2.70;;;;;;;2.03;94.88;94495.34;5086896;28;20300;-81
2022/03/06 09:59:57;;;;;;;3.23;2.57;;;;;;;1.85;94.62;94457.47;5083476;28;20261;-85
2022/03/06 10:02:22;;;;;;;4.23;2.67;;;;;;;1.91;94.27;94479.31;5080730;28;20190;-82
2022/03/06 10:04:50;;;;;;;5.17;2.33;;;;;;;2.04;93.56;94484.00;5077161;28;20669;-82
2022/03/06 10:07:19;;;;;;;3.50;2.73;;;;;;;2.05;93.48;94480.44;5080700;28;20166;-82
2022/03/06 10:09:45;;;;;;;4.53;2.80;;;;;;;1.97;93.51;94490.84;5080876;28;20178;-82
2022/03/06 10:12:32;;;;;;;4.30;2.80;;;;;;;2.21;93.57;94540.88;5077522;28;20201;-82
2022/03/06 10:15:03;;;;;;;4.63;3.00;;;;;;;2.15;93.95;94546.75;5085716;28;20194;-82
2022/03/06 10:17:31;;;;;;;3.73;2.93;;;;;;;1.81;93.53;94507.28;5079091;28;20649;-83
2022/03/06 10:19:57;;;;;;;2.50;2.00;;;;;;;1.94;94.67;94561.22;5079201;28;20189;-83
2022/03/06 10:22:33;;;;;;;2.90;2.30;;;;;;;1.94;95.06;94550.84;5082627;28;20261;-83
2022/03/06 10:25:06;;;;;;;3.00;2.33;;;;;;;1.88;95.08;94544.53;5080010;28;20247;-81
2022/03/06 10:27:46;;;;;;;4.90;2.83;;;;;;;1.63;94.29;94512.66;5079667;28;20181;-80
2022/03/06 10:30:23;;;;;;;5.17;2.93;;;;;;;1.90;92.73;94558.97;5087882;28;20188;-79
2022/03/06 10:32:48;;;;;;;3.60;2.93;;;;;;;1.91;92.84;94562.38;5084299;28;20213;-81
2022/03/06 10:35:14;;;;;;;3.73;2.70;;;;;;;1.94;91.55;94548.25;5081242;28;20174;-85
2022/03/06 10:37:39;;;;;;;4.57;3.47;;;;;;;1.68;91.78;94486.22;5087016;28;20180;-87
2022/03/06 10:40:05;;;;;;;5.47;3.23;;;;;;;1.63;90.78;94481.53;5083186;28;20177;-84
2022/03/06 10:42:31;;;;;;;5.57;2.60;;;;;;;1.63;89.13;94496.28;5091028;28;20189;-81
2022/03/06 10:44:56;;;;;;;3.13;2.77;;;;;;;1.13;89.34;94411.75;5094014;28;20232;-84
2022/03/06 10:47:22;;;;;;;3.67;2.73;;;;;;;1.89;89.30;94523.63;5093630;28;20653;-79
2022/03/06 10:50:01;;;;;;;5.50;3.27;;;;;;;1.98;89.31;94534.00;5090225;28;20181;-83
2022/03/06 10:52:26;;;;;;;3.90;3.40;;;;;;;1.88;88.89;94503.84;5073256;28;20259;-81
2022/03/06 10:54:57;;;;;;;3.90;3.27;;;;;;;1.79;88.16;94491.88;5072359;28;20689;-82
2022/03/06 10:57:24;;;;;;;3.50;3.10;;;;;;;1.81;87.63;94463.97;5081839;28;20178;-84
2022/03/06 10:59:50;;;;;;;6.50;4.20;;;;;;;2.26;88.73;94528.19;5085241;28;20264;-82
2022/03/06 11:02:16;;;;;;;5.07;4.10;;;;;;;2.22;89.61;94492.38;5079241;28;20595;-82
2022/03/06 11:04:46;;;;;;;6.40;4.13;;;;;;;2.52;88.20;94524.50;5086903;28;20261;-83
2022/03/06 11:07:12;;;;;;;4.10;3.20;;;;;;;2.17;87.79;94453.91;5068678;28;20174;-82
2022/03/06 11:09:39;;;;;;;4.23;2.43;;;;;;;2.31;87.64;94488.75;5086274;28;20170;-83
2022/03/06 11:12:05;;;;;;;3.27;2.43;;;;;;;1.84;88.29;94453.25;5070163;28;20194;-83
2022/03/06 11:14:32;;;;;;;2.67;2.40;;;;;;;1.78;89.95;94499.81;5084753;28;20174;-83
2022/03/06 11:16:58;;;;;;;3.77;2.80;;;;;;;1.87;91.43;94511.78;5088790;28;20272;-83
2022/03/06 11:19:25;;;;;;;2.53;2.30;;;;;;;1.85;91.50;94537.91;5072444;28;20249;-83
2022/03/06 11:21:59;;;;;;;4.37;2.23;;;;;;;1.42;91.97;94469.06;5073498;28;21569;-83
2022/03/06 11:24:29;;;;;;;2.23;2.00;;;;;;;1.67;91.57;94487.19;5082427;28;20601;-82
2022/03/06 11:27:02;;;;;;;3.53;2.57;;;;;;;2.01;91.11;94541.41;5083252;28;20568;-82
2022/03/06 11:30:02;;;;;;;2.63;2.17;;;;;;;2.08;90.87;94540.59;5084866;28;20676;-83
2022/03/06 11:32:33;;;;;;;4.73;2.60;;;;;;;2.02;91.34;94537.84;5074850;28;20267;-82
2022/03/06 11:35:04;;;;;;;3.30;2.60;;;;;;;1.99;91.38;94533.78;5081581;28;20189;-83
2022/03/06 11:37:51;;;;;;;3.67;2.10;;;;;;;1.82;90.89;94525.25;5090300;28;20182;-83
2022/03/06 11:40:35;;;;;;;3.13;2.27;;;;;;;1.82;91.00;94535.63;5088882;28;20176;-83
2022/03/06 11:43:01;;;;;;;2.90;2.30;;;;;;;1.70;91.41;94523.19;5083873;28;20294;-82
2022/03/06 11:45:45;;;;;;;2.87;2.57;;;;;;;1.80;91.26;94535.00;5073785;28;20184;-82
2022/03/06 11:48:24;;;;;;;3.67;2.63;;;;;;;1.54;91.98;94476.53;5085245;28;20210;-83
2022/03/06 11:51:23;;;;;;;3.43;2.70;;;;;;;1.83;91.00;94537.25;5089008;28;20243;-82
2022/03/06 11:54:10;;;;;;;2.30;2.10;;;;;;;1.65;90.84;94539.22;5069775;28;20179;-83
2022/03/06 11:56:35;;;;;;;5.33;2.80;;;;;;;1.49;92.82;94526.28;5067816;28;20178;-83